Time;durP1;ratioP1;P1;durP2;ratioP2;P2;SDS_P1;SDS_P2;PMS_P1;PMS_P2;Temp;Humidity;BMP_temperature;BMP_pressure;BME280_temperature;BME280_humidity;BME280_pressure;Samples;Min_cycle;Max_cycle;Signal;HPM_P1;HPM_P2
2021/11/21 00:00:29;;;;;;;28.88;16.98;;;10.00;99.90;;;;;;4975813;28;20220;-78
2021/11/21 00:02:56;;;;;;;25.23;16.20;;;10.00;99.90;;;;;;4975468;28;20201;-78
2021/11/21 00:05:21;;;;;;;30.85;17.17;;;10.00;99.90;;;;;;4975525;28;20210;-79
2021/11/21 00:07:47;;;;;;;26.88;15.50;;;9.90;99.90;;;;;;4975920;28;20173;-78
2021/11/21 00:10:13;;;;;;;25.80;15.73;;;10.00;99.90;;;;;;4975644;28;20170;-78
2021/11/21 00:12:39;;;;;;;22.10;14.40;;;10.00;99.90;;;;;;4975600;28;20178;-78
2021/11/21 00:15:05;;;;;;;25.80;16.10;;;9.90;99.90;;;;;;4974451;28;20186;-78
2021/11/21 00:17:31;;;;;;;26.08;15.27;;;9.90;99.90;;;;;;4975495;28;20166;-78
2021/11/21 00:19:57;;;;;;;26.50;15.63;;;9.80;99.90;;;;;;4975704;28;20236;-78
2021/11/21 00:22:24;;;;;;;24.85;15.82;;;9.80;99.90;;;;;;4975960;28;20174;-78
2021/11/21 00:24:51;;;;;;;20.67;14.90;;;9.60;99.90;;;;;;4974888;28;20197;-78
2021/11/21 00:27:16;;;;;;;21.05;14.40;;;9.80;99.90;;;;;;4975329;28;20719;-78
2021/11/21 00:29:42;;;;;;;20.45;13.90;;;9.90;99.90;;;;;;4975269;28;20166;-79
2021/11/21 00:32:08;;;;;;;22.70;13.77;;;9.80;99.90;;;;;;4975419;28;20512;-78
2021/11/21 00:34:33;;;;;;;18.02;12.52;;;9.80;99.90;;;;;;4975311;28;20224;-80
2021/11/21 00:36:59;;;;;;;23.27;14.15;;;9.90;99.90;;;;;;4975049;28;20174;-79
2021/11/21 00:39:25;;;;;;;27.17;14.48;;;10.00;99.90;;;;;;4975248;28;20173;-78
2021/11/21 00:41:52;;;;;;;25.27;14.70;;;9.80;99.90;;;;;;4975035;28;20767;-79
2021/11/21 00:44:19;;;;;;;24.08;14.20;;;9.80;99.90;;;;;;4974835;28;20284;-79
2021/11/21 00:46:44;;;;;;;24.13;14.55;;;9.90;99.90;;;;;;4974841;28;20663;-78
2021/11/21 00:49:14;;;;;;;26.83;14.40;;;9.60;99.90;;;;;;4974938;28;20253;-79
2021/11/21 00:51:40;;;;;;;19.45;12.23;;;9.70;99.90;;;;;;4975080;28;20574;-78
2021/11/21 00:54:22;;;;;;;25.65;14.13;;;9.70;99.90;;;;;;4975169;28;20178;-78
2021/11/21 00:56:48;;;;;;;23.55;13.45;;;9.80;99.90;;;;;;4974984;28;20774;-79
2021/11/21 00:59:16;;;;;;;23.02;13.65;;;9.90;99.90;;;;;;4974936;28;20196;-79
2021/11/21 01:01:42;;;;;;;24.52;13.80;;;10.00;99.90;;;;;;4974576;28;20173;-78
2021/11/21 01:04:08;;;;;;;23.25;14.82;;;9.90;99.90;;;;;;4974597;28;20560;-78
2021/11/21 01:06:33;;;;;;;20.88;13.48;;;9.80;99.90;;;;;;4974715;28;20750;-78
2021/11/21 01:08:59;;;;;;;22.52;13.30;;;9.90;99.90;;;;;;4974697;28;20250;-78
2021/11/21 01:11:24;;;;;;;19.25;12.63;;;9.70;99.90;;;;;;4974450;28;20166;-79
2021/11/21 01:13:50;;;;;;;19.08;13.38;;;9.80;99.90;;;;;;4974313;28;20501;-78
2021/11/21 01:16:16;;;;;;;23.27;13.43;;;9.80;99.90;;;;;;4973602;28;20201;-78
2021/11/21 01:18:41;;;;;;;19.65;12.52;;;9.80;99.90;;;;;;4974716;28;20162;-79
2021/11/21 01:21:07;;;;;;;19.33;12.38;;;9.80;99.90;;;;;;4974374;28;20189;-78
2021/11/21 01:23:33;;;;;;;19.67;12.00;;;9.80;99.90;;;;;;4974431;28;20166;-78
2021/11/21 01:25:59;;;;;;;19.58;12.18;;;9.90;99.90;;;;;;4974225;28;20801;-78
2021/11/21 01:28:25;;;;;;;19.40;12.20;;;9.80;99.90;;;;;;4974564;28;20158;-78
2021/11/21 01:30:51;;;;;;;20.42;11.80;;;9.80;99.90;;;;;;4974138;28;20264;-79
2021/11/21 01:33:16;;;;;;;19.08;11.65;;;9.90;99.90;;;;;;4974141;28;20170;-82
2021/11/21 01:35:42;;;;;;;20.67;12.90;;;9.90;99.90;;;;;;4973892;28;20634;-78
2021/11/21 01:38:08;;;;;;;17.55;11.52;;;10.10;99.90;;;;;;4974076;28;20173;-78
2021/11/21 01:40:35;;;;;;;15.30;10.85;;;10.10;99.90;;;;;;4973992;28;20166;-78
2021/11/21 01:43:02;;;;;;;17.98;10.48;;;10.20;99.90;;;;;;4974028;28;20686;-78
2021/11/21 01:45:28;;;;;;;17.10;10.57;;;10.20;99.90;;;;;;4974088;28;20206;-78
2021/11/21 01:47:54;;;;;;;14.68;10.90;;;10.10;99.90;;;;;;4973927;28;20181;-79
2021/11/21 01:50:29;;;;;;;13.73;9.32;;;9.90;99.90;;;;;;4973783;28;20190;-78
2021/11/21 01:52:55;;;;;;;17.38;11.10;;;9.90;99.90;;;;;;4973766;28;20252;-78
2021/11/21 01:55:23;;;;;;;16.77;10.35;;;9.90;99.90;;;;;;4973523;28;20189;-82
2021/11/21 01:57:49;;;;;;;15.77;10.70;;;9.80;99.90;;;;;;4973667;28;20170;-82
2021/11/21 02:00:16;;;;;;;17.15;11.45;;;9.90;99.90;;;;;;4973910;28;20173;-79
2021/11/21 02:02:43;;;;;;;19.23;11.45;;;10.00;99.90;;;;;;4973599;28;20224;-78
2021/11/21 02:05:10;;;;;;;18.58;11.75;;;10.10;99.90;;;;;;4973789;28;20209;-78
2021/11/21 02:07:36;;;;;;;18.45;11.18;;;9.70;99.90;;;;;;4973852;28;20220;-78
2021/11/21 02:10:05;;;;;;;15.50;10.98;;;10.00;99.90;;;;;;4973862;28;20177;-83
2021/11/21 02:12:31;;;;;;;17.13;11.48;;;9.80;99.90;;;;;;4973734;28;20170;-78
2021/11/21 02:14:57;;;;;;;16.40;11.15;;;9.70;99.90;;;;;;4973537;28;20201;-79
2021/11/21 02:17:26;;;;;;;25.27;11.40;;;9.70;99.90;;;;;;4973826;28;20177;-78
2021/11/21 02:19:52;;;;;;;20.33;11.40;;;9.90;99.90;;;;;;4973553;28;20174;-78
2021/11/21 02:22:18;;;;;;;17.17;10.15;;;9.90;99.90;;;;;;4973596;28;20193;-79
2021/11/21 02:24:44;;;;;;;19.83;10.70;;;10.00;99.90;;;;;;4973399;28;20694;-77
2021/11/21 02:27:09;;;;;;;19.15;10.80;;;10.00;99.90;;;;;;4973231;28;20200;-78
2021/11/21 02:29:35;;;;;;;16.42;10.35;;;9.90;99.90;;;;;;4973222;28;20166;-78
2021/11/21 02:32:01;;;;;;;26.98;10.88;;;9.90;99.90;;;;;;4973172;28;20691;-79
2021/11/21 02:34:26;;;;;;;20.10;10.73;;;9.90;99.90;;;;;;4973510;28;20197;-78
2021/11/21 02:36:52;;;;;;;17.40;10.75;;;9.90;99.90;;;;;;4973356;28;20190;-79
2021/11/21 02:39:18;;;;;;;14.20;9.77;;;9.90;99.90;;;;;;4973319;28;20166;-80
2021/11/21 02:41:43;;;;;;;16.90;11.40;;;9.80;99.90;;;;;;4973329;28;20245;-79
2021/11/21 02:44:09;;;;;;;17.92;10.77;;;9.90;99.90;;;;;;4973024;28;20240;-79
2021/11/21 02:46:36;;;;;;;16.98;9.65;;;10.00;99.90;;;;;;4972886;28;20248;-78
2021/11/21 02:49:02;;;;;;;19.83;10.60;;;10.00;99.90;;;;;;4973271;28;20193;-77
2021/11/21 02:51:28;;;;;;;15.50;9.85;;;9.90;99.90;;;;;;4973072;28;20531;-78
2021/11/21 02:53:54;;;;;;;19.02;9.68;;;9.80;99.90;;;;;;4972760;28;20249;-77
2021/11/21 02:56:20;;;;;;;14.50;9.18;;;9.80;99.90;;;;;;4973046;28;20257;-77
2021/11/21 02:58:47;;;;;;;15.18;9.05;;;9.80;99.90;;;;;;4973369;28;20166;-83
2021/11/21 03:01:24;;;;;;;17.58;10.13;;;9.70;99.90;;;;;;4972926;28;20213;-79
2021/11/21 03:03:50;;;;;;;12.68;8.95;;;9.80;99.90;;;;;;4973460;28;20634;-78
2021/11/21 03:06:16;;;;;;;18.95;10.20;;;9.80;99.90;;;;;;4973188;28;20194;-78
2021/11/21 03:08:42;;;;;;;20.05;10.88;;;10.00;99.90;;;;;;4971988;28;20265;-78
2021/11/21 03:11:19;;;;;;;16.83;10.00;;;10.00;99.90;;;;;;4973501;28;20265;-78
2021/11/21 03:13:45;;;;;;;15.57;9.73;;;9.90;99.90;;;;;;4973414;28;20212;-78
2021/11/21 03:16:12;;;;;;;19.25;9.65;;;9.80;99.90;;;;;;4973404;28;20214;-82
2021/11/21 03:18:38;;;;;;;22.85;11.65;;;10.00;99.90;;;;;;4973301;28;20510;-78
2021/11/21 03:21:03;;;;;;;20.65;11.18;;;10.00;99.90;;;;;;4972990;28;20249;-78
2021/11/21 03:23:29;;;;;;;17.17;10.30;;;9.90;99.90;;;;;;4973144;28;20256;-78
2021/11/21 03:25:54;;;;;;;20.05;10.70;;;9.90;99.90;;;;;;4973205;28;20692;-78
2021/11/21 03:28:20;;;;;;;16.98;10.75;;;10.00;99.90;;;;;;4972741;28;20162;-78
2021/11/21 03:30:46;;;;;;;19.23;11.60;;;10.00;99.90;;;;;;4972893;28;20166;-78
2021/11/21 03:33:11;;;;;;;18.50;10.95;;;10.00;99.90;;;;;;4973273;28;20182;-78
2021/11/21 03:35:37;;;;;;;21.00;10.27;;;9.90;99.90;;;;;;4972638;28;20209;-83
2021/11/21 03:38:03;;;;;;;22.65;12.07;;;9.90;99.90;;;;;;4973666;28;20166;-80
2021/11/21 03:40:30;;;;;;;21.52;12.20;;;9.80;99.90;;;;;;4976403;28;20284;-78
2021/11/21 03:42:56;;;;;;;22.05;11.73;;;9.80;99.90;;;;;;4976404;28;20290;-78
2021/11/21 03:45:22;;;;;;;21.38;11.55;;;9.80;99.90;;;;;;4976106;28;20553;-78
2021/11/21 03:47:48;;;;;;;22.13;11.48;;;9.90;99.90;;;;;;4976483;28;20174;-78
2021/11/21 03:50:15;;;;;;;22.90;11.93;;;9.80;99.90;;;;;;4976366;28;20228;-78
2021/11/21 03:52:43;;;;;;;22.45;11.65;;;9.90;99.90;;;;;;4976363;28;20241;-79
2021/11/21 03:55:10;;;;;;;23.75;11.90;;;10.00;99.90;;;;;;4976194;28;20252;-79
2021/11/21 03:57:36;;;;;;;22.02;11.80;;;10.20;99.90;;;;;;4976062;28;20170;-78
2021/11/21 04:00:05;;;;;;;24.73;11.25;;;10.10;99.90;;;;;;4975930;28;20174;-78
2021/11/21 04:02:31;;;;;;;24.02;12.18;;;10.00;99.90;;;;;;4976256;28;20593;-78
2021/11/21 04:04:57;;;;;;;20.63;11.55;;;9.90;99.90;;;;;;4975633;28;20292;-78
2021/11/21 04:07:23;;;;;;;22.13;12.40;;;9.90;99.90;;;;;;4975806;28;20549;-79
2021/11/21 04:09:48;;;;;;;25.52;13.02;;;9.90;99.90;;;;;;4975794;28;20629;-78
2021/11/21 04:12:14;;;;;;;25.77;11.95;;;9.90;99.90;;;;;;4975861;28;20678;-78
2021/11/21 04:14:40;;;;;;;23.52;12.68;;;10.00;99.90;;;;;;4975843;28;20182;-78
2021/11/21 04:17:05;;;;;;;26.75;13.48;;;9.90;99.90;;;;;;4976158;28;20165;-79
2021/11/21 04:19:31;;;;;;;22.67;11.02;;;10.00;99.90;;;;;;4975761;28;20170;-78
2021/11/21 04:21:57;;;;;;;23.50;13.27;;;10.00;99.90;;;;;;4975696;28;20168;-79
2021/11/21 04:24:22;;;;;;;22.02;12.60;;;10.10;99.90;;;;;;4975578;28;20206;-82
2021/11/21 04:26:48;;;;;;;29.25;13.20;;;9.90;99.90;;;;;;4975618;28;20229;-79
2021/11/21 04:29:14;;;;;;;22.55;12.13;;;9.70;99.90;;;;;;4975751;28;20650;-80
2021/11/21 04:31:40;;;;;;;30.38;14.13;;;9.70;99.90;;;;;;4975811;28;20202;-79
2021/11/21 04:34:06;;;;;;;25.38;13.30;;;9.80;99.90;;;;;;4975056;28;20166;-79
2021/11/21 04:36:32;;;;;;;25.17;13.55;;;9.90;99.90;;;;;;4975066;28;20212;-82
2021/11/21 04:38:58;;;;;;;21.50;13.18;;;9.90;99.90;;;;;;4975171;28;20170;-79
2021/11/21 04:41:24;;;;;;;29.42;13.98;;;9.90;99.90;;;;;;4975219;28;20579;-81
2021/11/21 04:43:49;;;;;;;21.95;13.13;;;9.90;99.90;;;;;;4975200;28;20173;-83
2021/11/21 04:46:15;;;;;;;28.90;13.32;;;9.80;99.90;;;;;;4974920;28;20208;-80
2021/11/21 04:48:41;;;;;;;26.38;13.95;;;9.80;99.90;;;;;;4974875;28;20188;-78
2021/11/21 04:51:06;;;;;;;29.55;15.63;;;9.70;99.90;;;;;;4974825;28;20228;-80
2021/11/21 04:53:32;;;;;;;30.48;13.75;;;9.80;99.90;;;;;;4975131;28;20212;-79
2021/11/21 04:55:58;;;;;;;26.55;13.18;;;9.90;99.90;;;;;;4974953;28;20574;-78
2021/11/21 04:58:23;;;;;;;29.00;13.48;;;10.00;99.90;;;;;;4975013;28;20574;-79
2021/11/21 05:00:49;;;;;;;32.90;15.05;;;9.90;99.90;;;;;;4973454;28;20726;-78
2021/11/21 05:03:15;;;;;;;25.08;13.73;;;10.00;99.90;;;;;;4975012;28;20202;-79
2021/11/21 05:05:40;;;;;;;29.40;14.90;;;9.90;99.90;;;;;;4974535;28;20209;-78
2021/11/21 05:08:07;;;;;;;28.95;14.63;;;9.80;99.90;;;;;;4974785;28;20170;-79
2021/11/21 05:10:33;;;;;;;33.80;15.93;;;10.00;99.90;;;;;;4974653;28;20177;-79
2021/11/21 05:12:59;;;;;;;28.10;13.45;;;9.90;99.90;;;;;;4974720;28;20170;-79
2021/11/21 05:15:25;;;;;;;26.27;13.80;;;10.00;99.90;;;;;;4974718;28;20277;-79
2021/11/21 05:17:52;;;;;;;34.42;15.50;;;9.80;99.90;;;;;;4974496;28;20261;-79
2021/11/21 05:20:19;;;;;;;30.70;15.07;;;9.80;99.90;;;;;;4974358;28;20189;-79
2021/11/21 05:22:46;;;;;;;26.23;14.10;;;9.70;99.90;;;;;;4974193;28;20529;-78
2021/11/21 05:25:12;;;;;;;28.58;14.07;;;9.80;99.90;;;;;;4974178;28;20217;-79
2021/11/21 05:27:38;;;;;;;23.10;13.73;;;10.00;99.90;;;;;;4974490;28;20245;-79
2021/11/21 05:30:05;;;;;;;37.17;15.52;;;10.20;99.90;;;;;;4974171;28;20265;-79
2021/11/21 05:32:31;;;;;;;29.52;14.18;;;10.40;99.90;;;;;;4974236;28;20719;-78
2021/11/21 05:34:57;;;;;;;29.05;14.27;;;10.20;99.90;;;;;;4973539;28;20240;-79
2021/11/21 05:37:22;;;;;;;27.23;14.68;;;10.20;99.90;;;;;;4974129;28;20193;-82
2021/11/21 05:39:48;;;;;;;28.58;14.63;;;10.20;99.90;;;;;;4973271;28;20178;-78
2021/11/21 05:42:14;;;;;;;29.90;14.73;;;10.10;99.90;;;;;;4974487;28;20184;-78
2021/11/21 05:44:39;;;;;;;34.53;14.15;;;10.10;99.90;;;;;;4974163;28;20209;-78
2021/11/21 05:47:06;;;;;;;26.58;13.93;;;10.00;99.90;;;;;;4974254;28;20170;-78
2021/11/21 05:49:32;;;;;;;23.75;13.23;;;10.20;99.90;;;;;;4974111;28;20178;-82
2021/11/21 05:51:57;;;;;;;29.48;14.15;;;10.30;99.90;;;;;;4974195;28;20165;-78
2021/11/21 05:54:23;;;;;;;27.38;14.27;;;10.30;99.90;;;;;;4973933;28;20204;-79
2021/11/21 05:56:49;;;;;;;35.35;13.93;;;10.20;99.90;;;;;;4973715;28;20538;-79
2021/11/21 05:59:14;;;;;;;23.17;13.60;;;10.20;99.90;;;;;;4974166;28;20547;-78
2021/11/21 06:01:40;;;;;;;24.35;13.68;;;10.10;99.90;;;;;;4973366;28;20718;-78
2021/11/21 06:04:06;;;;;;;25.38;13.48;;;10.20;99.90;;;;;;4973781;28;20240;-79
2021/11/21 06:06:32;;;;;;;31.83;15.68;;;10.20;99.90;;;;;;4974160;28;20364;-78
2021/11/21 06:08:57;;;;;;;26.02;14.40;;;10.20;99.90;;;;;;4973360;28;20174;-78
2021/11/21 06:11:23;;;;;;;40.53;15.50;;;10.20;99.90;;;;;;4973722;28;20536;-81
2021/11/21 06:13:49;;;;;;;25.85;13.90;;;10.10;99.90;;;;;;4973457;28;20202;-78
2021/11/21 06:16:14;;;;;;;22.42;13.57;;;10.20;99.90;;;;;;4973171;28;20260;-78
2021/11/21 06:18:40;;;;;;;26.88;13.55;;;10.20;99.90;;;;;;4973333;28;20170;-79
2021/11/21 06:21:06;;;;;;;26.63;13.88;;;10.10;99.90;;;;;;4973950;28;20177;-78
2021/11/21 06:23:35;;;;;;;24.92;13.45;;;10.30;99.90;;;;;;4973474;28;20193;-78
2021/11/21 06:26:02;;;;;;;25.52;13.18;;;10.30;99.90;;;;;;4973774;28;20217;-78
2021/11/21 06:28:28;;;;;;;26.00;14.15;;;10.20;99.90;;;;;;4973730;28;20750;-78
2021/11/21 06:30:54;;;;;;;21.67;11.93;;;10.20;99.90;;;;;;4973511;28;20170;-82
2021/11/21 06:33:20;;;;;;;25.05;12.77;;;10.20;99.90;;;;;;4973339;28;20249;-78
2021/11/21 06:35:46;;;;;;;29.10;13.50;;;10.20;99.90;;;;;;4973109;28;20197;-78
2021/11/21 06:38:13;;;;;;;19.90;12.40;;;10.30;99.90;;;;;;4973626;28;20202;-78
2021/11/21 06:40:39;;;;;;;18.85;11.95;;;10.20;99.90;;;;;;4973648;28;20166;-78
2021/11/21 06:43:05;;;;;;;22.58;12.80;;;10.10;99.90;;;;;;4973450;28;20175;-78
2021/11/21 06:45:30;;;;;;;24.20;12.63;;;10.10;99.90;;;;;;4971436;28;20228;-81
2021/11/21 06:47:56;;;;;;;25.10;13.68;;;10.20;99.90;;;;;;4973547;28;20268;-79
2021/11/21 06:50:22;;;;;;;24.30;13.18;;;10.40;99.90;;;;;;4973469;28;20182;-79
2021/11/21 06:52:48;;;;;;;23.05;13.20;;;10.40;99.90;;;;;;4973262;28;20253;-77
2021/11/21 06:55:16;;;;;;;27.30;13.25;;;10.40;99.90;;;;;;4973130;28;20280;-80
2021/11/21 06:57:43;;;;;;;21.90;13.30;;;10.30;99.90;;;;;;4973013;28;20651;-79
2021/11/21 07:00:12;;;;;;;26.92;14.35;;;10.40;99.90;;;;;;4973441;28;20174;-80
2021/11/21 07:02:38;;;;;;;25.30;13.07;;;10.50;99.90;;;;;;4973243;28;20289;-84
2021/11/21 07:05:04;;;;;;;24.33;13.35;;;10.40;99.90;;;;;;4973035;28;20669;-80
2021/11/21 07:07:31;;;;;;;32.55;14.48;;;10.40;99.90;;;;;;4973093;28;20177;-84
2021/11/21 07:09:56;;;;;;;27.23;15.82;;;10.40;99.90;;;;;;4973416;28;20170;-78
2021/11/21 07:12:22;;;;;;;23.55;12.32;;;10.40;99.90;;;;;;4973131;28;20181;-79
2021/11/21 07:14:48;;;;;;;23.88;13.07;;;10.40;99.90;;;;;;4976658;28;20671;-78
2021/11/21 07:17:14;;;;;;;27.20;13.93;;;10.20;99.90;;;;;;4976655;28;20185;-79
2021/11/21 07:19:39;;;;;;;23.33;12.73;;;10.10;99.90;;;;;;4976930;28;20202;-78
2021/11/21 07:22:05;;;;;;;26.45;12.23;;;10.10;99.90;;;;;;4976640;28;20221;-79
2021/11/21 07:24:31;;;;;;;27.00;12.57;;;10.10;99.90;;;;;;4976521;28;20210;-79
2021/11/21 07:26:59;;;;;;;32.35;13.63;;;10.10;99.90;;;;;;4976684;28;20178;-80
2021/11/21 07:29:28;;;;;;;23.65;11.85;;;10.10;99.90;;;;;;4976513;28;20528;-78
2021/11/21 07:31:58;;;;;;;23.65;12.52;;;10.10;99.90;;;;;;4976556;28;20189;-78
2021/11/21 07:34:24;;;;;;;20.85;11.82;;;10.10;99.90;;;;;;4976465;28;20170;-78
2021/11/21 07:36:50;;;;;;;24.02;11.75;;;10.10;99.90;;;;;;4976163;28;20710;-78
2021/11/21 07:39:16;;;;;;;24.25;11.55;;;10.30;99.90;;;;;;4976407;28;20228;-79
2021/11/21 07:41:41;;;;;;;21.67;11.73;;;10.40;99.90;;;;;;4976443;28;20178;-76
2021/11/21 07:44:09;;;;;;;21.45;11.20;;;10.30;99.90;;;;;;4976465;28;20181;-77
2021/11/21 07:46:35;;;;;;;22.75;9.88;;;10.40;99.90;;;;;;4975195;28;20236;-76
2021/11/21 07:49:01;;;;;;;18.80;10.43;;;10.40;99.90;;;;;;4976603;28;20174;-76
2021/11/21 07:51:26;;;;;;;12.60;7.97;;;10.50;99.90;;;;;;4976335;28;20176;-78
2021/11/21 07:53:52;;;;;;;11.32;7.63;;;10.40;99.90;;;;;;4976281;28;20219;-78
2021/11/21 07:56:19;;;;;;;10.82;8.02;;;10.30;99.90;;;;;;4976316;28;20182;-78
2021/11/21 07:58:44;;;;;;;10.38;7.18;;;10.10;99.90;;;;;;4974395;28;20225;-78
2021/11/21 08:01:10;;;;;;;12.63;7.30;;;10.20;99.90;;;;;;4975571;28;20169;-78
2021/11/21 08:03:36;;;;;;;11.52;6.63;;;10.20;99.90;;;;;;4976286;28;20165;-79
2021/11/21 08:06:02;;;;;;;10.90;8.02;;;10.20;99.90;;;;;;4976019;28;20221;-79
2021/11/21 08:08:28;;;;;;;10.30;6.53;;;10.30;99.90;;;;;;4976021;28;20247;-78
2021/11/21 08:10:53;;;;;;;14.90;7.63;;;10.20;99.90;;;;;;4975665;28;20177;-79
2021/11/21 08:13:19;;;;;;;12.50;8.18;;;10.30;99.90;;;;;;4975713;28;20162;-78
2021/11/21 08:15:47;;;;;;;10.80;7.15;;;10.40;99.90;;;;;;4975439;28;20247;-79
2021/11/21 08:18:14;;;;;;;10.55;7.70;;;10.60;99.90;;;;;;4975818;28;20166;-79
2021/11/21 08:20:39;;;;;;;8.23;7.40;;;10.80;99.90;;;;;;4975316;28;20170;-82
2021/11/21 08:23:05;;;;;;;15.52;7.45;;;10.90;99.90;;;;;;4975161;28;20177;-79
2021/11/21 08:25:37;;;;;;;9.07;7.28;;;10.90;99.90;;;;;;4965207;28;20222;-85
2021/11/21 08:28:03;;;;;;;7.47;6.43;;;11.00;99.90;;;;;;4956660;28;20163;-78
2021/11/21 08:30:32;;;;;;;8.45;7.03;;;10.90;99.90;;;;;;4955493;28;20183;-81
2021/11/21 08:32:58;;;;;;;13.30;8.52;;;10.90;99.90;;;;;;4955379;29;20623;-77
2021/11/21 08:35:23;;;;;;;9.50;6.72;;;11.00;99.90;;;;;;4962932;28;20229;-77
2021/11/21 08:37:49;;;;;;;8.60;6.50;;;11.20;99.90;;;;;;4974327;28;20162;-78
2021/11/21 08:40:15;;;;;;;6.50;4.55;;;11.20;99.90;;;;;;4973079;28;20180;-80
2021/11/21 08:42:40;;;;;;;16.98;5.65;;;11.20;99.90;;;;;;4975309;28;20527;-80
2021/11/21 08:45:09;;;;;;;11.55;7.65;;;11.50;99.90;;;;;;4968091;28;20206;-84
2021/11/21 08:47:36;;;;;;;9.50;5.57;;;11.60;99.90;;;;;;4959381;28;20170;-79
2021/11/21 08:50:05;;;;;;;5.97;5.47;;;11.60;99.90;;;;;;4955535;28;20650;-78
2021/11/21 08:52:31;;;;;;;6.10;5.18;;;11.50;99.90;;;;;;4960678;28;20176;-78
2021/11/21 08:54:56;;;;;;;9.80;5.60;;;11.60;99.90;;;;;;4974875;28;20276;-78
2021/11/21 08:57:22;;;;;;;7.00;5.25;;;11.70;99.90;;;;;;4973608;28;20166;-80
2021/11/21 08:59:48;;;;;;;7.63;5.70;;;11.50;99.90;;;;;;4974913;28;20586;-78
2021/11/21 09:02:14;;;;;;;11.70;5.97;;;11.70;99.90;;;;;;4970661;28;20186;-77
2021/11/21 09:04:39;;;;;;;9.85;6.63;;;11.70;99.90;;;;;;4962076;28;20210;-77
2021/11/21 09:07:05;;;;;;;10.23;5.55;;;11.80;99.90;;;;;;4955487;28;20519;-78
2021/11/21 09:09:33;;;;;;;8.40;5.45;;;11.70;99.90;;;;;;4954734;28;20183;-76
2021/11/21 09:11:58;;;;;;;10.73;6.32;;;11.90;99.90;;;;;;4954692;28;20171;-78
2021/11/21 09:14:26;;;;;;;8.93;6.90;;;11.80;99.90;;;;;;4955204;28;20185;-78
2021/11/21 09:16:52;;;;;;;8.65;6.53;;;11.60;99.90;;;;;;4954908;28;20204;-76
2021/11/21 09:19:18;;;;;;;8.20;7.40;;;11.20;99.90;;;;;;4954820;28;20258;-76
2021/11/21 09:21:44;;;;;;;16.67;7.78;;;11.10;99.90;;;;;;4954379;28;20309;-76
2021/11/21 09:24:09;;;;;;;11.20;7.50;;;10.90;99.90;;;;;;4954835;28;20187;-84
2021/11/21 09:26:35;;;;;;;11.73;8.18;;;10.70;99.90;;;;;;4954698;28;20190;-81
2021/11/21 09:29:01;;;;;;;13.30;8.88;;;10.50;99.90;;;;;;4972825;28;20241;-77
2021/11/21 09:31:27;;;;;;;11.77;7.68;;;10.50;99.90;;;;;;4973737;28;20169;-78
2021/11/21 09:33:53;;;;;;;10.85;6.28;;;10.50;99.90;;;;;;4974371;28;20266;-83
2021/11/21 09:36:19;;;;;;;9.57;4.55;;;10.40;99.90;;;;;;4971958;28;20189;-79
2021/11/21 09:38:45;;;;;;;4.10;3.47;;;10.10;99.90;;;;;;4974035;28;20201;-81
2021/11/21 09:41:12;;;;;;;3.85;3.42;;;10.00;99.90;;;;;;4974127;28;20205;-78
2021/11/21 09:43:40;;;;;;;5.45;2.75;;;10.00;99.90;;;;;;4973833;28;20661;-85
2021/11/21 09:46:06;;;;;;;3.10;2.78;;;9.90;99.90;;;;;;4973132;28;20210;-80
2021/11/21 09:48:33;;;;;;;4.35;2.50;;;9.80;99.90;;;;;;4973113;28;20286;-79
2021/11/21 09:51:00;;;;;;;3.03;2.72;;;9.90;99.90;;;;;;4972713;28;20647;-79
2021/11/21 09:53:26;;;;;;;3.38;3.05;;;9.90;99.90;;;;;;4973735;28;20185;-79
2021/11/21 09:55:52;;;;;;;4.55;3.30;;;10.10;99.90;;;;;;4974045;28;20190;-85
2021/11/21 09:58:18;;;;;;;6.13;2.90;;;10.20;99.90;;;;;;4973932;28;20651;-78
2021/11/21 10:00:44;;;;;;;6.00;3.78;;;10.40;99.90;;;;;;4973142;28;20174;-82
2021/11/21 10:03:15;;;;;;;7.30;4.20;;;10.60;99.90;;;;;;4973170;28;20196;-80
2021/11/21 10:05:53;;;;;;;4.75;3.75;;;10.60;99.90;;;;;;4973464;28;20277;-78
2021/11/21 10:08:28;;;;;;;7.28;4.13;;;10.50;99.90;;;;;;4973635;28;20165;-77
2021/11/21 10:10:59;;;;;;;7.50;4.78;;;10.60;99.90;;;;;;4973411;28;20220;-77
2021/11/21 10:13:28;;;;;;;6.85;4.72;;;10.80;99.90;;;;;;4973315;28;20186;-78
2021/11/21 10:15:54;;;;;;;6.18;4.45;;;10.60;99.90;;;;;;4973389;28;20193;-77
2021/11/21 10:18:20;;;;;;;5.35;4.85;;;10.60;99.90;;;;;;4955131;28;20538;-86
2021/11/21 10:20:47;;;;;;;5.72;5.13;;;10.80;99.90;;;;;;4953721;28;20166;-77
2021/11/21 10:23:13;;;;;;;8.18;4.82;;;11.00;99.90;;;;;;4953928;28;20185;-77
2021/11/21 10:25:43;;;;;;;6.35;4.95;;;11.10;99.90;;;;;;4954043;28;20386;-78
2021/11/21 10:28:10;;;;;;;8.90;5.80;;;11.10;99.90;;;;;;4954091;28;20205;-86
2021/11/21 10:31:12;;;;;;;10.05;5.38;;;11.40;99.90;;;;;;4953458;28;20171;-80
2021/11/21 10:33:49;;;;;;;6.63;5.93;;;11.60;99.90;;;;;;4953736;28;20508;-79
2021/11/21 10:36:24;;;;;;;6.88;4.88;;;11.80;99.90;;;;;;4953067;28;20194;-80
2021/11/21 10:38:59;;;;;;;8.77;5.85;;;12.00;99.90;;;;;;4954006;28;20209;-79
2021/11/21 10:41:26;;;;;;;7.05;4.72;;;12.20;99.90;;;;;;4953991;28;20174;-77
2021/11/21 10:43:57;;;;;;;5.53;5.10;;;12.10;99.90;;;;;;4953864;28;20208;-83
2021/11/21 10:46:38;;;;;;;9.85;4.78;;;12.20;99.90;;;;;;4953660;28;20249;-77
2021/11/21 10:49:12;;;;;;;8.98;5.10;;;12.20;99.90;;;;;;4958199;28;20291;-76
2021/11/21 10:51:38;;;;;;;7.45;5.05;;;12.20;99.90;;;;;;4957845;29;20197;-78
2021/11/21 10:54:15;;;;;;;5.82;5.15;;;12.30;99.90;;;;;;4957894;29;20630;-82
2021/11/21 10:56:49;;;;;;;8.20;4.47;;;12.20;99.90;;;;;;4958514;28;20558;-79
2021/11/21 10:59:30;;;;;;;5.97;4.78;;;12.10;99.90;;;;;;4977036;28;20616;-78
2021/11/21 11:02:10;;;;;;;7.47;4.45;;;12.00;99.90;;;;;;4976762;28;20522;-78
2021/11/21 11:04:36;;;;;;;10.60;5.60;;;11.80;99.90;;;;;;4959670;28;20245;-78
2021/11/21 11:07:15;;;;;;;6.47;4.10;;;11.80;99.90;;;;;;4956953;28;20201;-78
2021/11/21 11:09:43;;;;;;;7.68;4.57;;;11.70;99.90;;;;;;4957507;28;20237;-77
2021/11/21 11:12:09;;;;;;;3.58;3.28;;;11.70;99.90;;;;;;4957214;28;20190;-77
2021/11/21 11:14:36;;;;;;;9.45;4.20;;;11.90;99.90;;;;;;4957035;28;20641;-85
2021/11/21 11:17:02;;;;;;;4.25;3.63;;;11.70;99.90;;;;;;4957355;28;20179;-84
2021/11/21 11:19:28;;;;;;;4.40;3.55;;;11.90;99.90;;;;;;4950648;28;20229;-83
2021/11/21 11:21:55;;;;;;;10.73;3.45;;;11.70;99.90;;;;;;4957210;28;20163;-78
2021/11/21 11:24:22;;;;;;;9.82;3.42;;;12.00;99.90;;;;;;4957386;28;20696;-78
2021/11/21 11:27:13;;;;;;;7.32;3.60;;;12.20;99.90;;;;;;4957569;28;20277;-79
2021/11/21 11:29:43;;;;;;;7.10;4.38;;;12.30;99.90;;;;;;4938886;28;20182;-81
2021/11/21 11:32:24;;;;;;;3.42;3.13;;;12.30;99.90;;;;;;4957283;28;20218;-77
2021/11/21 11:34:51;;;;;;;7.28;3.95;;;12.20;99.90;;;;;;4957271;28;20599;-78
2021/11/21 11:37:38;;;;;;;7.97;3.17;;;12.00;99.90;;;;;;4953193;28;20165;-78
2021/11/21 11:40:06;;;;;;;5.03;3.15;;;11.90;99.90;;;;;;4957170;28;20218;-83
2021/11/21 11:42:37;;;;;;;7.00;3.42;;;11.90;99.90;;;;;;4957104;28;20179;-85
2021/11/21 11:45:08;;;;;;;10.68;3.30;;;11.70;99.90;;;;;;4961630;28;20221;-78
2021/11/21 11:47:37;;;;;;;5.20;4.03;;;11.80;99.90;;;;;;4960104;28;20162;-82
2021/11/21 11:50:05;;;;;;;6.88;3.42;;;11.60;99.90;;;;;;4969019;28;20183;-78
2021/11/21 11:52:57;;;;;;;3.65;2.35;;;11.40;99.90;;;;;;4956882;28;20175;-84
2021/11/21 11:55:28;;;;;;;5.63;1.85;;;11.30;99.90;;;;;;4955669;28;20679;-79
2021/11/21 11:57:55;;;;;;;5.20;2.28;;;11.40;99.90;;;;;;4971514;28;20186;-82
2021/11/21 12:00:30;;;;;;;7.15;2.63;;;11.50;99.90;;;;;;4972831;28;20174;-86
2021/11/21 12:02:58;;;;;;;6.30;4.10;;;11.60;99.90;;;;;;4976356;28;20631;-85
2021/11/21 12:05:35;;;;;;;18.58;6.53;;;11.90;99.90;;;;;;4976007;28;20210;-86
2021/11/21 12:08:18;;;;;;;11.90;4.13;;;12.00;99.90;;;;;;4974237;28;20165;-78
2021/11/21 12:10:52;;;;;;;8.38;2.65;;;12.10;99.90;;;;;;4975164;28;20182;-78
2021/11/21 12:13:38;;;;;;;6.78;2.95;;;11.90;99.90;;;;;;4975085;28;20195;-78
2021/11/21 12:16:06;;;;;;;11.25;3.97;;;12.20;99.90;;;;;;4975065;28;20217;-78
2021/11/21 12:19:07;;;;;;;4.38;2.22;;;12.10;99.90;;;;;;4975222;28;20177;-78
2021/11/21 12:21:37;;;;;;;6.95;2.35;;;12.30;99.90;;;;;;4915700;29;20281;-79
2021/11/21 12:24:24;;;;;;;6.82;2.25;;;12.50;99.90;;;;;;4961512;28;20241;-79
2021/11/21 12:26:50;;;;;;;11.32;1.90;;;12.40;99.90;;;;;;4974671;28;20636;-82
2021/11/21 12:29:17;;;;;;;5.85;1.98;;;12.30;99.90;;;;;;4974778;28;20162;-79
2021/11/21 12:31:46;;;;;;;6.35;2.22;;;12.40;99.90;;;;;;4975105;28;20166;-79
2021/11/21 12:34:43;;;;;;;7.68;1.88;;;12.20;99.90;;;;;;4974991;28;20170;-79
2021/11/21 12:37:15;;;;;;;4.68;2.03;;;12.00;99.90;;;;;;4974953;28;20757;-78